ROA265 SCEL-SCCI
Flight info
| Callsign | ROA265 |
|---|---|
| Flight time | 3h 39m |
| Altitude | 27000 |
| Route | LINER6C LINER UQ805 TOSET/N0459F290 UQ805 TIGNO UQ803 NEDAX NEDAX3E |
| Aircraft | A321/M-SDE3FGHIRWY/LB1 |
Departure
| Time | 2026-05-08 04:26 |
|---|---|
| Airport | Comodoro Arturo Merino Benítez International Airport (SCEL) |
Arrival
| Time | 2026-05-08 08:05 |
|---|---|
| Airport | President Carlos Ibáñez International Airport (SCCI) |
| Time | Latitude | Longitude | Altitude | Speed | Heading |
|---|---|---|---|---|---|
| 2026-05-08 03:39 | -33.39598 | -70.79453 | 1564 ft | 0 kts | 176° |
| 2026-05-08 04:10 | -33.39580 | -70.79455 | 1564 ft | 3 kts | 176° |
| 2026-05-08 04:11 | -33.39567 | -70.79456 | 1564 ft | 3 kts | 176° |
| 2026-05-08 04:11 | -33.39548 | -70.79458 | 1564 ft | 3 kts | 185° |
| 2026-05-08 04:11 | -33.39529 | -70.79451 | 1564 ft | 3 kts | 217° |
| 2026-05-08 04:11 | -33.39515 | -70.79434 | 1564 ft | 3 kts | 248° |
| 2026-05-08 04:12 | -33.39511 | -70.79411 | 1564 ft | 3 kts | 277° |
| 2026-05-08 04:12 | -33.39512 | -70.79406 | 1564 ft | 0 kts | 277° |
| 2026-05-08 04:15 | -33.39511 | -70.79412 | 1564 ft | 2 kts | 275° |
| 2026-05-08 04:15 | -33.39513 | -70.79458 | 1564 ft | 9 kts | 266° |
| 2026-05-08 04:15 | -33.39516 | -70.79530 | 1564 ft | 8 kts | 267° |
| 2026-05-08 04:15 | -33.39518 | -70.79587 | 1564 ft | 6 kts | 267° |
| 2026-05-08 04:16 | -33.39519 | -70.79629 | 1564 ft | 5 kts | 267° |
| 2026-05-08 04:16 | -33.39522 | -70.79697 | 1564 ft | 12 kts | 267° |
| 2026-05-08 04:16 | -33.39526 | -70.79791 | 1564 ft | 10 kts | 267° |
| 2026-05-08 04:16 | -33.39529 | -70.79869 | 1565 ft | 8 kts | 267° |
| 2026-05-08 04:17 | -33.39531 | -70.79930 | 1565 ft | 6 kts | 268° |
| 2026-05-08 04:17 | -33.39529 | -70.79998 | 1565 ft | 10 kts | 275° |
| 2026-05-08 04:17 | -33.39494 | -70.80044 | 1566 ft | 7 kts | 341° |
| 2026-05-08 04:17 | -33.39430 | -70.80048 | 1566 ft | 13 kts | 358° |
| 2026-05-08 04:18 | -33.39318 | -70.80055 | 1566 ft | 17 kts | 357° |
| 2026-05-08 04:18 | -33.39206 | -70.80062 | 1566 ft | 15 kts | 356° |
| 2026-05-08 04:18 | -33.39108 | -70.80067 | 1566 ft | 13 kts | 357° |
| 2026-05-08 04:18 | -33.39025 | -70.80072 | 1567 ft | 11 kts | 357° |
| 2026-05-08 04:19 | -33.38956 | -70.80076 | 1567 ft | 10 kts | 357° |
| 2026-05-08 04:19 | -33.38870 | -70.80080 | 1567 ft | 14 kts | 357° |
| 2026-05-08 04:19 | -33.38756 | -70.80087 | 1567 ft | 19 kts | 357° |
| 2026-05-08 04:19 | -33.38614 | -70.80095 | 1567 ft | 20 kts | 358° |
| 2026-05-08 04:20 | -33.38478 | -70.80101 | 1567 ft | 19 kts | 358° |
| 2026-05-08 04:20 | -33.38349 | -70.80109 | 1566 ft | 18 kts | 356° |
| 2026-05-08 04:20 | -33.38232 | -70.80114 | 1566 ft | 17 kts | 359° |
| 2026-05-08 04:20 | -33.38094 | -70.80122 | 1566 ft | 23 kts | 356° |
| 2026-05-08 04:21 | -33.37943 | -70.80132 | 1566 ft | 21 kts | 357° |
| 2026-05-08 04:21 | -33.37798 | -70.80138 | 1566 ft | 19 kts | 358° |
| 2026-05-08 04:21 | -33.37675 | -70.80146 | 1566 ft | 17 kts | 355° |
| 2026-05-08 04:21 | -33.37567 | -70.80151 | 1566 ft | 15 kts | 358° |
| 2026-05-08 04:22 | -33.37510 | -70.80154 | 1566 ft | 0 kts | 358° |
| 2026-05-08 04:22 | -33.37494 | -70.80154 | 1566 ft | 6 kts | 358° |
| 2026-05-08 04:23 | -33.37431 | -70.80157 | 1566 ft | 13 kts | 358° |
| 2026-05-08 04:23 | -33.37332 | -70.80162 | 1567 ft | 14 kts | 357° |
| 2026-05-08 04:23 | -33.37242 | -70.80168 | 1567 ft | 12 kts | 358° |
| 2026-05-08 04:23 | -33.37165 | -70.80175 | 1567 ft | 10 kts | 347° |
| 2026-05-08 04:24 | -33.37118 | -70.80216 | 1568 ft | 7 kts | 306° |
| 2026-05-08 04:24 | -33.37106 | -70.80251 | 1569 ft | 5 kts | 287° |
| 2026-05-08 04:24 | -33.37105 | -70.80298 | 1572 ft | 6 kts | 259° |
| 2026-05-08 04:24 | -33.37133 | -70.80351 | 1574 ft | 9 kts | 221° |
| 2026-05-08 04:25 | -33.37197 | -70.80373 | 1573 ft | 14 kts | 181° |
| 2026-05-08 04:25 | -33.37432 | -70.80359 | 1574 ft | 62 kts | 177° |
| 2026-05-08 04:25 | -33.38078 | -70.80326 | 1571 ft | 121 kts | 177° |
| 2026-05-08 04:25 | -33.39088 | -70.80271 | 1574 ft | 168 kts | 177° |
| 2026-05-08 04:26 | -33.39929 | -70.80220 | 1676 ft | 185 kts | 176° |
| 2026-05-08 04:26 | -33.41194 | -70.80144 | 2354 ft | 181 kts | 177° |
| 2026-05-08 04:26 | -33.42494 | -70.80075 | 2756 ft | 195 kts | 178° |
| 2026-05-08 04:26 | -33.43913 | -70.80004 | 2912 ft | 213 kts | 177° |
| 2026-05-08 04:27 | -33.45459 | -70.79922 | 3060 ft | 233 kts | 177° |
| 2026-05-08 04:27 | -33.47181 | -70.79828 | 3283 ft | 254 kts | 177° |
| 2026-05-08 04:27 | -33.48969 | -70.79732 | 3869 ft | 260 kts | 177° |
| 2026-05-08 04:27 | -33.50793 | -70.79636 | 4530 ft | 263 kts | 177° |
| 2026-05-08 04:28 | -33.52662 | -70.79536 | 5180 ft | 267 kts | 177° |
| 2026-05-08 04:28 | -33.54525 | -70.79408 | 5821 ft | 270 kts | 176° |
| 2026-05-08 04:28 | -33.56407 | -70.79218 | 6476 ft | 273 kts | 175° |
| 2026-05-08 04:28 | -33.58305 | -70.79002 | 7088 ft | 275 kts | 175° |
| 2026-05-08 04:29 | -33.60222 | -70.78776 | 7689 ft | 278 kts | 175° |
| 2026-05-08 04:29 | -33.62157 | -70.78551 | 8297 ft | 281 kts | 175° |
| 2026-05-08 04:29 | -33.64114 | -70.78329 | 8903 ft | 283 kts | 176° |
| 2026-05-08 04:29 | -33.66086 | -70.78108 | 9511 ft | 286 kts | 176° |
| 2026-05-08 04:30 | -33.68074 | -70.77889 | 10118 ft | 288 kts | 176° |
| 2026-05-08 04:30 | -33.70097 | -70.77672 | 10480 ft | 299 kts | 176° |
| 2026-05-08 04:30 | -33.72234 | -70.77444 | 10606 ft | 318 kts | 176° |
| 2026-05-08 04:30 | -33.74502 | -70.77201 | 10740 ft | 335 kts | 176° |
| 2026-05-08 04:31 | -33.76882 | -70.76943 | 10971 ft | 348 kts | 176° |
| 2026-05-08 04:31 | -33.79307 | -70.76677 | 11481 ft | 352 kts | 176° |
| 2026-05-08 04:31 | -33.81751 | -70.76409 | 12094 ft | 352 kts | 177° |
| 2026-05-08 04:31 | -33.84189 | -70.76142 | 12711 ft | 353 kts | 177° |
| 2026-05-08 04:32 | -33.86643 | -70.75872 | 13350 ft | 353 kts | 178° |
| 2026-05-08 04:32 | -33.89094 | -70.75600 | 13987 ft | 354 kts | 178° |
| 2026-05-08 04:32 | -33.91549 | -70.75338 | 14545 ft | 354 kts | 180° |
| 2026-05-08 04:32 | -33.93999 | -70.75443 | 15031 ft | 352 kts | 191° |
| 2026-05-08 04:33 | -33.96429 | -70.75858 | 15539 ft | 353 kts | 191° |
| 2026-05-08 04:33 | -33.98902 | -70.76284 | 16013 ft | 355 kts | 191° |
| 2026-05-08 04:33 | -34.01355 | -70.76704 | 16415 ft | 358 kts | 191° |
| 2026-05-08 04:33 | -34.03817 | -70.77120 | 16924 ft | 358 kts | 191° |
| 2026-05-08 04:34 | -34.06265 | -70.77529 | 17405 ft | 360 kts | 191° |
| 2026-05-08 04:34 | -34.08757 | -70.77943 | 17873 ft | 362 kts | 191° |
| 2026-05-08 04:34 | -34.11251 | -70.78363 | 18340 ft | 364 kts | 191° |
| 2026-05-08 04:34 | -34.13769 | -70.78789 | 18757 ft | 365 kts | 192° |
| 2026-05-08 04:35 | -34.16293 | -70.79215 | 19136 ft | 367 kts | 192° |
| 2026-05-08 04:35 | -34.18839 | -70.79645 | 19520 ft | 369 kts | 192° |
| 2026-05-08 04:35 | -34.21388 | -70.80077 | 19915 ft | 370 kts | 192° |
| 2026-05-08 04:35 | -34.23950 | -70.80511 | 20311 ft | 372 kts | 192° |
| 2026-05-08 04:36 | -34.26517 | -70.80946 | 20696 ft | 374 kts | 192° |
| 2026-05-08 04:36 | -34.29104 | -70.81385 | 21073 ft | 375 kts | 192° |
| 2026-05-08 04:36 | -34.31701 | -70.81824 | 21452 ft | 377 kts | 192° |
| 2026-05-08 04:36 | -34.34304 | -70.82268 | 21833 ft | 379 kts | 192° |
| 2026-05-08 04:37 | -34.36915 | -70.82715 | 22199 ft | 381 kts | 192° |
| 2026-05-08 04:37 | -34.39552 | -70.83165 | 22569 ft | 382 kts | 192° |
| 2026-05-08 04:37 | -34.42195 | -70.83617 | 22941 ft | 384 kts | 193° |
| 2026-05-08 04:37 | -34.44842 | -70.84070 | 23298 ft | 385 kts | 193° |
| 2026-05-08 04:38 | -34.47506 | -70.84526 | 23627 ft | 388 kts | 193° |
| 2026-05-08 04:38 | -34.50185 | -70.84983 | 23949 ft | 389 kts | 193° |
| 2026-05-08 04:38 | -34.52907 | -70.85443 | 24258 ft | 391 kts | 193° |
| 2026-05-08 04:38 | -34.55604 | -70.85898 | 24587 ft | 391 kts | 192° |
| 2026-05-08 04:39 | -34.58300 | -70.86354 | 24879 ft | 392 kts | 192° |
| 2026-05-08 04:39 | -34.61014 | -70.86816 | 25174 ft | 393 kts | 192° |
| 2026-05-08 04:39 | -34.63730 | -70.87281 | 25496 ft | 394 kts | 192° |
| 2026-05-08 04:39 | -34.66443 | -70.87745 | 25810 ft | 394 kts | 192° |
| 2026-05-08 04:40 | -34.69167 | -70.88211 | 26092 ft | 395 kts | 192° |
| 2026-05-08 04:40 | -34.71897 | -70.88677 | 26370 ft | 396 kts | 192° |
| 2026-05-08 04:40 | -34.74632 | -70.89144 | 26620 ft | 397 kts | 192° |
| 2026-05-08 04:40 | -34.77377 | -70.89613 | 26939 ft | 398 kts | 192° |
| 2026-05-08 04:41 | -34.80120 | -70.90084 | 27194 ft | 399 kts | 192° |
| 2026-05-08 04:41 | -34.82862 | -70.90557 | 27274 ft | 394 kts | 192° |
| 2026-05-08 04:41 | -34.85560 | -70.91018 | 27284 ft | 389 kts | 192° |
| 2026-05-08 04:41 | -34.88237 | -70.91477 | 27295 ft | 388 kts | 192° |
| 2026-05-08 04:42 | -34.90908 | -70.91937 | 27282 ft | 388 kts | 192° |
| 2026-05-08 04:42 | -34.93617 | -70.92403 | 27286 ft | 388 kts | 192° |
| 2026-05-08 04:42 | -34.96254 | -70.92856 | 27283 ft | 388 kts | 192° |
| 2026-05-08 04:42 | -34.98961 | -70.93322 | 27296 ft | 387 kts | 192° |
| 2026-05-08 04:43 | -35.01735 | -70.93799 | 27284 ft | 388 kts | 192° |
| 2026-05-08 04:43 | -35.04411 | -70.94258 | 27289 ft | 388 kts | 192° |
| 2026-05-08 04:43 | -35.07084 | -70.94717 | 27292 ft | 388 kts | 192° |
| 2026-05-08 04:43 | -35.09761 | -70.95176 | 27300 ft | 388 kts | 192° |
| 2026-05-08 04:44 | -35.12398 | -70.95632 | 27300 ft | 388 kts | 192° |
| 2026-05-08 04:44 | -35.15075 | -70.96097 | 27295 ft | 388 kts | 192° |
| 2026-05-08 04:44 | -35.17775 | -70.96569 | 27297 ft | 388 kts | 192° |
| 2026-05-08 04:44 | -35.20452 | -70.97035 | 27306 ft | 388 kts | 192° |
| 2026-05-08 04:45 | -35.23123 | -70.97499 | 27303 ft | 388 kts | 192° |
| 2026-05-08 04:45 | -35.25811 | -70.97964 | 27295 ft | 388 kts | 192° |
| 2026-05-08 04:45 | -35.28416 | -70.98416 | 27296 ft | 389 kts | 192° |
| 2026-05-08 04:45 | -35.31163 | -70.98894 | 27313 ft | 389 kts | 192° |
| 2026-05-08 04:46 | -35.33842 | -70.99362 | 27310 ft | 389 kts | 192° |
| 2026-05-08 04:46 | -35.36523 | -70.99831 | 27311 ft | 389 kts | 192° |
| 2026-05-08 04:46 | -35.39207 | -71.00303 | 27308 ft | 389 kts | 192° |
| 2026-05-08 04:46 | -35.41879 | -71.00769 | 27317 ft | 389 kts | 192° |
| 2026-05-08 04:47 | -35.44577 | -71.01236 | 27317 ft | 389 kts | 192° |
| 2026-05-08 04:47 | -35.47254 | -71.01698 | 27311 ft | 390 kts | 192° |
| 2026-05-08 04:47 | -35.49941 | -71.02164 | 27308 ft | 389 kts | 192° |
| 2026-05-08 04:47 | -35.52626 | -71.02632 | 27314 ft | 389 kts | 192° |
| 2026-05-08 04:48 | -35.55315 | -71.03098 | 27306 ft | 390 kts | 192° |
| 2026-05-08 04:48 | -35.57998 | -71.03565 | 27304 ft | 390 kts | 192° |
| 2026-05-08 04:48 | -35.60689 | -71.04035 | 27298 ft | 390 kts | 192° |
| 2026-05-08 04:48 | -35.63378 | -71.04507 | 27317 ft | 390 kts | 192° |
| 2026-05-08 04:49 | -35.65160 | -71.04819 | 27308 ft | 390 kts | 192° |
| 2026-05-08 04:49 | -35.67850 | -71.05289 | 27306 ft | 391 kts | 192° |
| 2026-05-08 04:49 | -35.70548 | -71.05764 | 27306 ft | 391 kts | 192° |
| 2026-05-08 04:49 | -35.73235 | -71.06240 | 27302 ft | 391 kts | 192° |
| 2026-05-08 04:50 | -35.75934 | -71.06721 | 27316 ft | 391 kts | 192° |
| 2026-05-08 04:50 | -35.78625 | -71.07197 | 27312 ft | 392 kts | 192° |
| 2026-05-08 04:50 | -35.81330 | -71.07671 | 27311 ft | 392 kts | 192° |
| 2026-05-08 04:50 | -35.84027 | -71.08142 | 27309 ft | 392 kts | 192° |
| 2026-05-08 04:51 | -35.86730 | -71.08614 | 27309 ft | 391 kts | 192° |
| 2026-05-08 04:51 | -35.89421 | -71.09089 | 27306 ft | 392 kts | 192° |
| 2026-05-08 04:51 | -35.92127 | -71.09569 | 27299 ft | 393 kts | 192° |
| 2026-05-08 04:51 | -35.94838 | -71.10051 | 27304 ft | 393 kts | 192° |
| 2026-05-08 04:52 | -35.97540 | -71.10531 | 27305 ft | 393 kts | 192° |
| 2026-05-08 04:52 | -36.00240 | -71.11011 | 27298 ft | 392 kts | 192° |
| 2026-05-08 04:52 | -36.02953 | -71.11492 | 27306 ft | 393 kts | 192° |
| 2026-05-08 04:52 | -36.05661 | -71.11967 | 27308 ft | 394 kts | 191° |
| 2026-05-08 04:53 | -36.08380 | -71.12443 | 27311 ft | 393 kts | 192° |
| 2026-05-08 04:53 | -36.11057 | -71.12914 | 27313 ft | 394 kts | 192° |
| 2026-05-08 04:53 | -36.13800 | -71.13400 | 27305 ft | 393 kts | 192° |
| 2026-05-08 04:53 | -36.16510 | -71.13880 | 27299 ft | 393 kts | 192° |
| 2026-05-08 04:54 | -36.19212 | -71.14360 | 27316 ft | 393 kts | 192° |
| 2026-05-08 04:54 | -36.21914 | -71.14841 | 27314 ft | 393 kts | 192° |
| 2026-05-08 04:54 | -36.24625 | -71.15323 | 27298 ft | 393 kts | 192° |
| 2026-05-08 04:54 | -36.27333 | -71.15806 | 27299 ft | 393 kts | 191° |
| 2026-05-08 04:55 | -36.30075 | -71.16295 | 27303 ft | 393 kts | 191° |
| 2026-05-08 04:55 | -36.32784 | -71.16780 | 27302 ft | 394 kts | 191° |
| 2026-05-08 04:55 | -36.35497 | -71.17264 | 27302 ft | 394 kts | 191° |
| 2026-05-08 04:55 | -36.38250 | -71.17755 | 27357 ft | 398 kts | 191° |
| 2026-05-08 04:56 | -36.41011 | -71.18251 | 27513 ft | 402 kts | 191° |
| 2026-05-08 04:56 | -36.43787 | -71.18748 | 27803 ft | 403 kts | 191° |
| 2026-05-08 04:56 | -36.46563 | -71.19244 | 28115 ft | 402 kts | 191° |
| 2026-05-08 04:56 | -36.49300 | -71.19733 | 28471 ft | 401 kts | 191° |
| 2026-05-08 04:57 | -36.52098 | -71.20233 | 28815 ft | 401 kts | 191° |
| 2026-05-08 04:57 | -36.54856 | -71.20726 | 29151 ft | 400 kts | 191° |
| 2026-05-08 04:57 | -36.57614 | -71.21218 | 29289 ft | 400 kts | 191° |
| 2026-05-08 04:57 | -36.60371 | -71.21713 | 29308 ft | 399 kts | 191° |
| 2026-05-08 04:58 | -36.65867 | -71.22700 | 29312 ft | 399 kts | 191° |
| 2026-05-08 04:58 | -36.71367 | -71.23690 | 29308 ft | 399 kts | 191° |
| 2026-05-08 04:59 | -36.76875 | -71.24689 | 29310 ft | 400 kts | 191° |
| 2026-05-08 04:59 | -36.82379 | -71.25686 | 29305 ft | 399 kts | 191° |
| 2026-05-08 05:00 | -36.87879 | -71.26683 | 29306 ft | 400 kts | 191° |
| 2026-05-08 05:00 | -36.93385 | -71.27682 | 29301 ft | 400 kts | 191° |
| 2026-05-08 05:01 | -36.98893 | -71.28676 | 29299 ft | 400 kts | 191° |
| 2026-05-08 05:01 | -37.04446 | -71.29681 | 29303 ft | 400 kts | 191° |
| 2026-05-08 05:02 | -37.09963 | -71.30687 | 29292 ft | 401 kts | 191° |
| 2026-05-08 05:02 | -37.15440 | -71.31688 | 29301 ft | 401 kts | 191° |
| 2026-05-08 05:03 | -37.21006 | -71.32705 | 29283 ft | 402 kts | 191° |
| 2026-05-08 05:03 | -37.26507 | -71.33709 | 29293 ft | 402 kts | 191° |
| 2026-05-08 05:04 | -37.32067 | -71.34727 | 29279 ft | 404 kts | 191° |
| 2026-05-08 05:04 | -37.37625 | -71.35735 | 29283 ft | 404 kts | 190° |
| 2026-05-08 05:05 | -37.40335 | -71.36224 | 29964 ft | 379 kts | 190° |
| 2026-05-08 05:05 | -37.42938 | -71.36689 | 30771 ft | 368 kts | 190° |
| 2026-05-08 05:05 | -37.48095 | -71.37642 | 30252 ft | 389 kts | 191° |
| 2026-05-08 05:06 | -37.53545 | -71.38668 | 30227 ft | 402 kts | 191° |
| 2026-05-08 05:06 | -37.56359 | -71.39193 | 30042 ft | 402 kts | 191° |
| 2026-05-08 05:06 | -37.59125 | -71.39705 | 29745 ft | 402 kts | 190° |
| 2026-05-08 05:07 | -37.61936 | -71.40224 | 29454 ft | 402 kts | 190° |
| 2026-05-08 05:07 | -37.64702 | -71.40729 | 29267 ft | 402 kts | 190° |
| 2026-05-08 05:07 | -37.70243 | -71.41749 | 29287 ft | 402 kts | 190° |
| 2026-05-08 05:08 | -37.75765 | -71.42774 | 29291 ft | 401 kts | 190° |
| 2026-05-08 05:08 | -37.81330 | -71.43802 | 29283 ft | 401 kts | 190° |
| 2026-05-08 05:09 | -37.86834 | -71.44820 | 29295 ft | 400 kts | 190° |
| 2026-05-08 05:09 | -37.92345 | -71.45844 | 29286 ft | 399 kts | 190° |
| 2026-05-08 05:10 | -38.00588 | -71.47385 | 29298 ft | 398 kts | 190° |
| 2026-05-08 05:11 | -38.06107 | -71.48408 | 29291 ft | 397 kts | 190° |
| 2026-05-08 05:11 | -38.11541 | -71.49422 | 29295 ft | 397 kts | 190° |
| 2026-05-08 05:12 | -38.16184 | -71.50299 | 29291 ft | 396 kts | 190° |
| 2026-05-08 05:12 | -38.21662 | -71.51325 | 29289 ft | 394 kts | 190° |
| 2026-05-08 05:13 | -38.27091 | -71.52344 | 29285 ft | 394 kts | 190° |
| 2026-05-08 05:13 | -38.32504 | -71.53358 | 29284 ft | 392 kts | 190° |
| 2026-05-08 05:14 | -38.37865 | -71.54368 | 29277 ft | 391 kts | 190° |
| 2026-05-08 05:14 | -38.43291 | -71.55393 | 29275 ft | 390 kts | 191° |
| 2026-05-08 05:15 | -38.48662 | -71.56420 | 29265 ft | 390 kts | 190° |
| 2026-05-08 05:15 | -38.54018 | -71.57431 | 29268 ft | 388 kts | 190° |
| 2026-05-08 05:16 | -38.59361 | -71.58436 | 29249 ft | 387 kts | 191° |
| 2026-05-08 05:16 | -38.64695 | -71.59445 | 29266 ft | 387 kts | 190° |
| 2026-05-08 05:17 | -38.70021 | -71.60452 | 29256 ft | 386 kts | 191° |
| 2026-05-08 05:17 | -38.75325 | -71.61472 | 29267 ft | 385 kts | 191° |
| 2026-05-08 05:18 | -38.80624 | -71.62488 | 29248 ft | 384 kts | 191° |
| 2026-05-08 05:18 | -38.85901 | -71.63492 | 29255 ft | 383 kts | 191° |
| 2026-05-08 05:19 | -38.91213 | -71.64504 | 29247 ft | 383 kts | 191° |
| 2026-05-08 05:19 | -38.96440 | -71.65509 | 29256 ft | 382 kts | 191° |
| 2026-05-08 05:20 | -39.01700 | -71.66522 | 29249 ft | 381 kts | 191° |
| 2026-05-08 05:20 | -39.06950 | -71.67526 | 29253 ft | 380 kts | 191° |
| 2026-05-08 05:21 | -39.12181 | -71.68535 | 29244 ft | 379 kts | 191° |
| 2026-05-08 05:21 | -39.17401 | -71.69545 | 29251 ft | 379 kts | 191° |
| 2026-05-08 05:22 | -39.22642 | -71.70553 | 29237 ft | 378 kts | 191° |
| 2026-05-08 05:22 | -39.27802 | -71.71552 | 29248 ft | 377 kts | 191° |
| 2026-05-08 05:23 | -39.33020 | -71.72560 | 29244 ft | 376 kts | 191° |
| 2026-05-08 05:23 | -39.38157 | -71.73553 | 29242 ft | 374 kts | 191° |
| 2026-05-08 05:24 | -39.43378 | -71.74566 | 29234 ft | 374 kts | 191° |
| 2026-05-08 05:24 | -39.45953 | -71.75065 | 28953 ft | 372 kts | 194° |
| 2026-05-08 05:24 | -39.48444 | -71.75542 | 29062 ft | 352 kts | 193° |
| 2026-05-08 05:24 | -39.50799 | -71.75988 | 29199 ft | 334 kts | 193° |
| 2026-05-08 05:25 | -39.53071 | -71.76425 | 29217 ft | 328 kts | 193° |
| 2026-05-08 05:25 | -39.57566 | -71.77306 | 29231 ft | 326 kts | 193° |
| 2026-05-08 05:26 | -39.62046 | -71.78199 | 29218 ft | 325 kts | 193° |
| 2026-05-08 05:26 | -39.66519 | -71.79076 | 29218 ft | 325 kts | 193° |
| 2026-05-08 05:27 | -39.71002 | -71.79956 | 29218 ft | 326 kts | 193° |
| 2026-05-08 05:27 | -39.75490 | -71.80835 | 29219 ft | 326 kts | 193° |
| 2026-05-08 05:28 | -39.79977 | -71.81709 | 29217 ft | 326 kts | 193° |
| 2026-05-08 05:28 | -39.84472 | -71.82591 | 29215 ft | 326 kts | 193° |
| 2026-05-08 05:29 | -39.88969 | -71.83478 | 29215 ft | 326 kts | 193° |
| 2026-05-08 05:29 | -39.93479 | -71.84377 | 29210 ft | 326 kts | 193° |
| 2026-05-08 05:30 | -39.97961 | -71.85266 | 29203 ft | 325 kts | 193° |
| 2026-05-08 05:30 | -40.02444 | -71.86148 | 29199 ft | 326 kts | 193° |
| 2026-05-08 05:31 | -40.07017 | -71.87045 | 29206 ft | 326 kts | 192° |
| 2026-05-08 05:31 | -40.11491 | -71.87926 | 29187 ft | 325 kts | 193° |
| 2026-05-08 05:32 | -40.16007 | -71.88825 | 29182 ft | 325 kts | 193° |
| 2026-05-08 05:32 | -40.20490 | -71.89722 | 29177 ft | 326 kts | 193° |
| 2026-05-08 05:33 | -40.24946 | -71.90607 | 29180 ft | 327 kts | 193° |
| 2026-05-08 05:33 | -40.29436 | -71.91504 | 29181 ft | 326 kts | 193° |
| 2026-05-08 05:34 | -40.33230 | -71.92266 | 29175 ft | 326 kts | 193° |
| 2026-05-08 05:34 | -40.37734 | -71.93163 | 29178 ft | 327 kts | 193° |
| 2026-05-08 05:35 | -40.42261 | -71.94063 | 29174 ft | 327 kts | 192° |
| 2026-05-08 05:35 | -40.46757 | -71.94958 | 29175 ft | 327 kts | 192° |
| 2026-05-08 05:36 | -40.51261 | -71.95870 | 29170 ft | 327 kts | 192° |
| 2026-05-08 05:36 | -40.55794 | -71.96779 | 29171 ft | 328 kts | 192° |
| 2026-05-08 05:37 | -40.60302 | -71.97691 | 29172 ft | 328 kts | 192° |
| 2026-05-08 05:37 | -40.64815 | -71.98608 | 29165 ft | 328 kts | 192° |
| 2026-05-08 05:38 | -40.69382 | -71.99527 | 29185 ft | 338 kts | 192° |
| 2026-05-08 05:38 | -40.74123 | -72.00483 | 29185 ft | 349 kts | 192° |
| 2026-05-08 05:39 | -40.78922 | -72.01445 | 29184 ft | 352 kts | 192° |
| 2026-05-08 05:39 | -40.83799 | -72.02430 | 29183 ft | 352 kts | 192° |
| 2026-05-08 05:40 | -40.88651 | -72.03410 | 29179 ft | 353 kts | 192° |
| 2026-05-08 05:40 | -40.93518 | -72.04400 | 29183 ft | 354 kts | 192° |
| 2026-05-08 05:41 | -40.98389 | -72.05393 | 29181 ft | 353 kts | 191° |
| 2026-05-08 05:41 | -41.03280 | -72.06383 | 29180 ft | 354 kts | 191° |
| 2026-05-08 05:42 | -41.08351 | -72.07417 | 29168 ft | 354 kts | 192° |
| 2026-05-08 05:42 | -41.13355 | -72.08443 | 29174 ft | 347 kts | 192° |
| 2026-05-08 05:43 | -41.17355 | -72.09255 | 29182 ft | 336 kts | 192° |
| 2026-05-08 05:43 | -41.21974 | -72.10200 | 29192 ft | 336 kts | 192° |
| 2026-05-08 05:44 | -41.26579 | -72.11144 | 29177 ft | 335 kts | 191° |
| 2026-05-08 05:44 | -41.31200 | -72.12023 | 29194 ft | 336 kts | 190° |
| 2026-05-08 05:45 | -41.35850 | -72.12722 | 29161 ft | 336 kts | 189° |
| 2026-05-08 05:45 | -41.40528 | -72.13405 | 29161 ft | 338 kts | 190° |
| 2026-05-08 05:46 | -41.45118 | -72.14115 | 29162 ft | 337 kts | 189° |
| 2026-05-08 05:46 | -41.49852 | -72.14849 | 29169 ft | 339 kts | 190° |
| 2026-05-08 05:47 | -41.54545 | -72.15575 | 29168 ft | 339 kts | 190° |
| 2026-05-08 05:47 | -41.59269 | -72.16323 | 29174 ft | 340 kts | 190° |
| 2026-05-08 05:48 | -41.63974 | -72.17061 | 29179 ft | 341 kts | 189° |
| 2026-05-08 05:48 | -41.68717 | -72.17796 | 29160 ft | 341 kts | 189° |
| 2026-05-08 05:49 | -41.73445 | -72.18537 | 29174 ft | 343 kts | 189° |
| 2026-05-08 05:49 | -41.78181 | -72.19284 | 29174 ft | 343 kts | 189° |
| 2026-05-08 05:50 | -41.82916 | -72.20025 | 29184 ft | 343 kts | 189° |
| 2026-05-08 05:50 | -41.87653 | -72.20763 | 29164 ft | 342 kts | 189° |
| 2026-05-08 05:51 | -41.92427 | -72.21515 | 29177 ft | 343 kts | 189° |
| 2026-05-08 05:51 | -41.97210 | -72.22277 | 29185 ft | 344 kts | 189° |
| 2026-05-08 05:52 | -42.01962 | -72.23033 | 29182 ft | 343 kts | 189° |
| 2026-05-08 05:52 | -42.06722 | -72.23788 | 29180 ft | 344 kts | 189° |
| 2026-05-08 05:53 | -42.11445 | -72.24541 | 29179 ft | 345 kts | 189° |
| 2026-05-08 05:53 | -42.16209 | -72.25295 | 29175 ft | 344 kts | 189° |
| 2026-05-08 05:54 | -42.20997 | -72.26058 | 29176 ft | 344 kts | 189° |
| 2026-05-08 05:54 | -42.25770 | -72.26819 | 29170 ft | 344 kts | 189° |
| 2026-05-08 05:55 | -42.30586 | -72.27586 | 29170 ft | 344 kts | 189° |
| 2026-05-08 05:55 | -42.35448 | -72.28368 | 29157 ft | 345 kts | 189° |
| 2026-05-08 05:56 | -42.40214 | -72.29137 | 29162 ft | 346 kts | 189° |
| 2026-05-08 05:56 | -42.44999 | -72.29905 | 29173 ft | 346 kts | 189° |
| 2026-05-08 05:57 | -42.49813 | -72.30684 | 29171 ft | 346 kts | 189° |
| 2026-05-08 05:57 | -42.54626 | -72.31458 | 29187 ft | 347 kts | 189° |
| 2026-05-08 05:58 | -42.58976 | -72.32153 | 29177 ft | 347 kts | 189° |
| 2026-05-08 05:58 | -42.63827 | -72.32939 | 29181 ft | 348 kts | 189° |
| 2026-05-08 05:59 | -42.68640 | -72.33718 | 29180 ft | 348 kts | 189° |
| 2026-05-08 05:59 | -42.73449 | -72.34495 | 29182 ft | 348 kts | 189° |
| 2026-05-08 06:00 | -42.78250 | -72.35272 | 29180 ft | 348 kts | 189° |
| 2026-05-08 06:00 | -42.83061 | -72.36065 | 29200 ft | 348 kts | 189° |
| 2026-05-08 06:01 | -42.87882 | -72.36857 | 29200 ft | 349 kts | 189° |
| 2026-05-08 06:01 | -42.92737 | -72.37640 | 29204 ft | 349 kts | 189° |
| 2026-05-08 06:02 | -42.97529 | -72.38410 | 29207 ft | 350 kts | 189° |
| 2026-05-08 06:02 | -43.02428 | -72.39212 | 29205 ft | 349 kts | 189° |
| 2026-05-08 06:03 | -43.07279 | -72.40011 | 29199 ft | 350 kts | 189° |
| 2026-05-08 06:03 | -43.12123 | -72.40801 | 29221 ft | 350 kts | 189° |
| 2026-05-08 06:04 | -43.16964 | -72.41599 | 29219 ft | 351 kts | 189° |
| 2026-05-08 06:04 | -43.21804 | -72.42394 | 29211 ft | 350 kts | 189° |
| 2026-05-08 06:05 | -43.26647 | -72.43189 | 29223 ft | 349 kts | 189° |
| 2026-05-08 06:05 | -43.31487 | -72.43990 | 29219 ft | 350 kts | 189° |
| 2026-05-08 06:06 | -43.36326 | -72.44796 | 29228 ft | 351 kts | 189° |
| 2026-05-08 06:06 | -43.41166 | -72.45596 | 29219 ft | 352 kts | 189° |
| 2026-05-08 06:07 | -43.46064 | -72.46401 | 29223 ft | 351 kts | 189° |
| 2026-05-08 06:07 | -43.50919 | -72.47206 | 29226 ft | 351 kts | 189° |
| 2026-05-08 06:08 | -43.55772 | -72.48010 | 29226 ft | 351 kts | 189° |
| 2026-05-08 06:08 | -43.60630 | -72.48823 | 29225 ft | 351 kts | 189° |
| 2026-05-08 06:09 | -43.65492 | -72.49639 | 29226 ft | 352 kts | 189° |
| 2026-05-08 06:09 | -43.70349 | -72.50454 | 29227 ft | 352 kts | 189° |
| 2026-05-08 06:10 | -43.74457 | -72.51148 | 29228 ft | 352 kts | 189° |
| 2026-05-08 06:10 | -43.79369 | -72.51959 | 29223 ft | 352 kts | 189° |
| 2026-05-08 06:11 | -43.84244 | -72.52775 | 29232 ft | 353 kts | 189° |
| 2026-05-08 06:11 | -43.89188 | -72.53608 | 29228 ft | 353 kts | 189° |
| 2026-05-08 06:12 | -43.94199 | -72.54458 | 29226 ft | 354 kts | 189° |
| 2026-05-08 06:12 | -43.99164 | -72.55298 | 29228 ft | 354 kts | 189° |
| 2026-05-08 06:13 | -44.04022 | -72.56127 | 29228 ft | 354 kts | 189° |
| 2026-05-08 06:13 | -44.08954 | -72.56960 | 29231 ft | 355 kts | 189° |
| 2026-05-08 06:14 | -44.13862 | -72.57795 | 29230 ft | 355 kts | 189° |
| 2026-05-08 06:14 | -44.18771 | -72.58631 | 29238 ft | 355 kts | 189° |
| 2026-05-08 06:15 | -44.23719 | -72.59466 | 29236 ft | 355 kts | 189° |
| 2026-05-08 06:15 | -44.28566 | -72.60292 | 29240 ft | 355 kts | 189° |
| 2026-05-08 06:16 | -44.33549 | -72.61147 | 29249 ft | 356 kts | 189° |
| 2026-05-08 06:16 | -44.38459 | -72.61992 | 29247 ft | 356 kts | 189° |
| 2026-05-08 06:17 | -44.45901 | -72.63272 | 29247 ft | 356 kts | 189° |
| 2026-05-08 06:17 | -44.50822 | -72.64116 | 29246 ft | 356 kts | 189° |
| 2026-05-08 06:18 | -44.55742 | -72.64961 | 29247 ft | 356 kts | 189° |
| 2026-05-08 06:18 | -44.60672 | -72.65806 | 29252 ft | 357 kts | 189° |
| 2026-05-08 06:19 | -44.65640 | -72.66663 | 29258 ft | 357 kts | 189° |
| 2026-05-08 06:19 | -44.70567 | -72.67517 | 29253 ft | 357 kts | 189° |
| 2026-05-08 06:20 | -44.75501 | -72.68372 | 29257 ft | 358 kts | 189° |
| 2026-05-08 06:20 | -44.80439 | -72.69226 | 29251 ft | 357 kts | 189° |
| 2026-05-08 06:21 | -44.85412 | -72.70090 | 29263 ft | 358 kts | 189° |
| 2026-05-08 06:21 | -44.90354 | -72.70953 | 29262 ft | 358 kts | 189° |
| 2026-05-08 06:22 | -44.95310 | -72.71814 | 29261 ft | 358 kts | 189° |
| 2026-05-08 06:22 | -45.00258 | -72.72682 | 29260 ft | 359 kts | 189° |
| 2026-05-08 06:23 | -45.05216 | -72.73552 | 29258 ft | 359 kts | 189° |
| 2026-05-08 06:23 | -45.09338 | -72.74266 | 29274 ft | 359 kts | 189° |
| 2026-05-08 06:24 | -45.14329 | -72.75144 | 29262 ft | 359 kts | 190° |
| 2026-05-08 06:24 | -45.19286 | -72.76022 | 29266 ft | 360 kts | 189° |
| 2026-05-08 06:25 | -45.24294 | -72.76902 | 29269 ft | 359 kts | 189° |
| 2026-05-08 06:25 | -45.29266 | -72.77770 | 29271 ft | 360 kts | 189° |
| 2026-05-08 06:26 | -45.34333 | -72.78668 | 29273 ft | 360 kts | 189° |
| 2026-05-08 06:26 | -45.39309 | -72.79558 | 29281 ft | 360 kts | 189° |
| 2026-05-08 06:27 | -45.44276 | -72.80437 | 29291 ft | 359 kts | 189° |
| 2026-05-08 06:27 | -45.49273 | -72.81320 | 29288 ft | 359 kts | 189° |
| 2026-05-08 06:28 | -45.54239 | -72.82206 | 29289 ft | 360 kts | 189° |
| 2026-05-08 06:28 | -45.59208 | -72.83097 | 29297 ft | 360 kts | 189° |
| 2026-05-08 06:29 | -45.64218 | -72.83990 | 29296 ft | 361 kts | 189° |
| 2026-05-08 06:29 | -45.69198 | -72.84876 | 29296 ft | 360 kts | 189° |
| 2026-05-08 06:30 | -45.74181 | -72.85773 | 29300 ft | 361 kts | 189° |
| 2026-05-08 06:30 | -45.79165 | -72.86666 | 29303 ft | 361 kts | 189° |
| 2026-05-08 06:31 | -45.84152 | -72.87557 | 29309 ft | 361 kts | 189° |
| 2026-05-08 06:31 | -45.89141 | -72.88457 | 29305 ft | 361 kts | 189° |
| 2026-05-08 06:32 | -45.94168 | -72.89372 | 29303 ft | 362 kts | 189° |
| 2026-05-08 06:32 | -45.99169 | -72.90280 | 29304 ft | 362 kts | 189° |
| 2026-05-08 06:33 | -46.04267 | -72.91202 | 29306 ft | 363 kts | 189° |
| 2026-05-08 06:33 | -46.09290 | -72.92108 | 29316 ft | 363 kts | 189° |
| 2026-05-08 06:34 | -46.14264 | -72.93020 | 29321 ft | 363 kts | 189° |
| 2026-05-08 06:34 | -46.19269 | -72.93937 | 29317 ft | 363 kts | 189° |
| 2026-05-08 06:35 | -46.24311 | -72.94859 | 29325 ft | 363 kts | 189° |
| 2026-05-08 06:35 | -46.29278 | -72.95767 | 29319 ft | 362 kts | 189° |
| 2026-05-08 06:36 | -46.34299 | -72.96685 | 29324 ft | 363 kts | 189° |
| 2026-05-08 06:36 | -46.39343 | -72.97615 | 29322 ft | 362 kts | 189° |
| 2026-05-08 06:37 | -46.44351 | -72.98536 | 29327 ft | 363 kts | 189° |
| 2026-05-08 06:37 | -46.49359 | -72.99455 | 29315 ft | 362 kts | 189° |
| 2026-05-08 06:38 | -46.54369 | -73.00377 | 29328 ft | 363 kts | 189° |
| 2026-05-08 06:38 | -46.59374 | -73.01302 | 29334 ft | 363 kts | 189° |
| 2026-05-08 06:39 | -46.64384 | -73.02228 | 29325 ft | 362 kts | 189° |
| 2026-05-08 06:39 | -46.69397 | -73.03161 | 29330 ft | 363 kts | 189° |
| 2026-05-08 06:40 | -46.74448 | -73.04109 | 29327 ft | 362 kts | 189° |
| 2026-05-08 06:40 | -46.78669 | -73.04893 | 29330 ft | 362 kts | 189° |
| 2026-05-08 06:41 | -46.83674 | -73.05830 | 29333 ft | 362 kts | 189° |
| 2026-05-08 06:41 | -46.88689 | -73.06767 | 29345 ft | 362 kts | 189° |
| 2026-05-08 06:42 | -46.93691 | -73.07692 | 29347 ft | 362 kts | 189° |
| 2026-05-08 06:42 | -46.98729 | -73.08634 | 29353 ft | 362 kts | 189° |
| 2026-05-08 06:43 | -47.03684 | -73.09581 | 29355 ft | 361 kts | 189° |
| 2026-05-08 06:43 | -47.08718 | -73.10533 | 29353 ft | 362 kts | 189° |
| 2026-05-08 06:44 | -47.13681 | -73.11474 | 29357 ft | 362 kts | 189° |
| 2026-05-08 06:44 | -47.18711 | -73.12425 | 29346 ft | 361 kts | 189° |
| 2026-05-08 06:45 | -47.23707 | -73.13382 | 29345 ft | 362 kts | 189° |
| 2026-05-08 06:45 | -47.28706 | -73.14333 | 29352 ft | 363 kts | 189° |
| 2026-05-08 06:46 | -47.33856 | -73.15311 | 29347 ft | 362 kts | 189° |
| 2026-05-08 06:46 | -47.38900 | -73.16270 | 29350 ft | 363 kts | 189° |
| 2026-05-08 06:47 | -47.43904 | -73.17218 | 29346 ft | 362 kts | 190° |
| 2026-05-08 06:47 | -47.48910 | -73.18178 | 29353 ft | 363 kts | 189° |
| 2026-05-08 06:48 | -47.53918 | -73.19151 | 29360 ft | 363 kts | 189° |
| 2026-05-08 06:48 | -47.58911 | -73.20113 | 29354 ft | 362 kts | 189° |
| 2026-05-08 06:49 | -47.63905 | -73.21081 | 29351 ft | 362 kts | 189° |
| 2026-05-08 06:49 | -47.68898 | -73.22041 | 29358 ft | 362 kts | 189° |
| 2026-05-08 06:50 | -47.73896 | -73.23001 | 29354 ft | 361 kts | 189° |
| 2026-05-08 06:50 | -47.78885 | -73.23978 | 29356 ft | 362 kts | 189° |
| 2026-05-08 06:51 | -47.83884 | -73.24957 | 29353 ft | 363 kts | 189° |
| 2026-05-08 06:51 | -47.88922 | -73.25938 | 29349 ft | 363 kts | 189° |
| 2026-05-08 06:52 | -47.93909 | -73.26900 | 29354 ft | 364 kts | 189° |
| 2026-05-08 06:52 | -47.98913 | -73.27876 | 29350 ft | 363 kts | 189° |
| 2026-05-08 06:53 | -48.03928 | -73.28861 | 29352 ft | 363 kts | 189° |
| 2026-05-08 06:53 | -48.08941 | -73.29854 | 29356 ft | 363 kts | 189° |
| 2026-05-08 06:54 | -48.13954 | -73.30841 | 29353 ft | 363 kts | 189° |
| 2026-05-08 06:54 | -48.18963 | -73.31822 | 29351 ft | 362 kts | 189° |
| 2026-05-08 06:55 | -48.23965 | -73.32811 | 29354 ft | 362 kts | 189° |
| 2026-05-08 06:55 | -48.28958 | -73.33804 | 29354 ft | 362 kts | 189° |
| 2026-05-08 06:56 | -48.33955 | -73.34793 | 29356 ft | 363 kts | 189° |
| 2026-05-08 06:56 | -48.38951 | -73.35791 | 29352 ft | 362 kts | 189° |
| 2026-05-08 06:57 | -48.43954 | -73.36783 | 29356 ft | 362 kts | 189° |
| 2026-05-08 06:57 | -48.48956 | -73.37779 | 29355 ft | 363 kts | 189° |
| 2026-05-08 06:58 | -48.53972 | -73.38784 | 29357 ft | 363 kts | 189° |
| 2026-05-08 06:58 | -48.58996 | -73.39791 | 29356 ft | 364 kts | 189° |
| 2026-05-08 06:59 | -48.64047 | -73.40803 | 29360 ft | 364 kts | 189° |
| 2026-05-08 06:59 | -48.69075 | -73.41812 | 29366 ft | 364 kts | 189° |
| 2026-05-08 07:00 | -48.74092 | -73.42823 | 29363 ft | 364 kts | 189° |
| 2026-05-08 07:00 | -48.79119 | -73.43838 | 29369 ft | 364 kts | 189° |
| 2026-05-08 07:01 | -48.83289 | -73.44675 | 29370 ft | 364 kts | 189° |
| 2026-05-08 07:01 | -48.88420 | -73.45722 | 29369 ft | 364 kts | 189° |
| 2026-05-08 07:02 | -48.93412 | -73.46742 | 29369 ft | 365 kts | 189° |
| 2026-05-08 07:02 | -48.98477 | -73.47766 | 29365 ft | 364 kts | 189° |
| 2026-05-08 07:03 | -49.03516 | -73.48779 | 29365 ft | 365 kts | 188° |
| 2026-05-08 07:03 | -49.08558 | -73.49811 | 29364 ft | 366 kts | 189° |
| 2026-05-08 07:04 | -49.13607 | -73.50852 | 29360 ft | 366 kts | 189° |
| 2026-05-08 07:04 | -49.18657 | -73.51893 | 29358 ft | 366 kts | 189° |
| 2026-05-08 07:05 | -49.23688 | -73.52930 | 29364 ft | 364 kts | 189° |
| 2026-05-08 07:05 | -49.28783 | -73.53987 | 29360 ft | 365 kts | 189° |
| 2026-05-08 07:06 | -49.33829 | -73.55022 | 29357 ft | 366 kts | 189° |
| 2026-05-08 07:06 | -49.38961 | -73.56075 | 29355 ft | 367 kts | 189° |
| 2026-05-08 07:07 | -49.44020 | -73.57124 | 29357 ft | 367 kts | 189° |
| 2026-05-08 07:07 | -49.49091 | -73.58186 | 29361 ft | 368 kts | 189° |
| 2026-05-08 07:08 | -49.54168 | -73.59247 | 29357 ft | 367 kts | 189° |
| 2026-05-08 07:08 | -49.59245 | -73.60308 | 29369 ft | 369 kts | 189° |
| 2026-05-08 07:09 | -49.64341 | -73.61364 | 29360 ft | 369 kts | 189° |
| 2026-05-08 07:09 | -49.69435 | -73.62428 | 29363 ft | 370 kts | 189° |
| 2026-05-08 07:10 | -49.74545 | -73.63506 | 29357 ft | 370 kts | 189° |
| 2026-05-08 07:10 | -49.79659 | -73.64584 | 29359 ft | 371 kts | 189° |
| 2026-05-08 07:11 | -49.84781 | -73.65663 | 29359 ft | 371 kts | 189° |
| 2026-05-08 07:11 | -49.89900 | -73.66742 | 29354 ft | 372 kts | 189° |
| 2026-05-08 07:12 | -49.95035 | -73.67824 | 29368 ft | 373 kts | 189° |
| 2026-05-08 07:12 | -50.00180 | -73.68909 | 29372 ft | 373 kts | 189° |
| 2026-05-08 07:13 | -50.05330 | -73.70004 | 29370 ft | 374 kts | 189° |
| 2026-05-08 07:13 | -50.10486 | -73.71107 | 29371 ft | 373 kts | 189° |
| 2026-05-08 07:14 | -50.15640 | -73.72208 | 29369 ft | 374 kts | 189° |
| 2026-05-08 07:14 | -50.20792 | -73.73321 | 29366 ft | 374 kts | 189° |
| 2026-05-08 07:15 | -50.25952 | -73.74432 | 29362 ft | 374 kts | 189° |
| 2026-05-08 07:15 | -50.31113 | -73.75536 | 29358 ft | 374 kts | 189° |
| 2026-05-08 07:16 | -50.36307 | -73.75569 | 29358 ft | 379 kts | 172° |
| 2026-05-08 07:16 | -50.38858 | -73.74403 | 29346 ft | 384 kts | 161° |
| 2026-05-08 07:16 | -50.41246 | -73.72450 | 29357 ft | 390 kts | 154° |
| 2026-05-08 07:17 | -50.45918 | -73.68073 | 29364 ft | 391 kts | 154° |
| 2026-05-08 07:17 | -50.50608 | -73.63694 | 29360 ft | 392 kts | 155° |
| 2026-05-08 07:18 | -50.55304 | -73.59302 | 29375 ft | 393 kts | 154° |
| 2026-05-08 07:18 | -50.60005 | -73.54890 | 29373 ft | 394 kts | 154° |
| 2026-05-08 07:19 | -50.64709 | -73.50462 | 29375 ft | 394 kts | 154° |
| 2026-05-08 07:19 | -50.69417 | -73.46019 | 29381 ft | 394 kts | 154° |
| 2026-05-08 07:20 | -50.74128 | -73.41564 | 29394 ft | 395 kts | 154° |
| 2026-05-08 07:20 | -50.78835 | -73.37099 | 29404 ft | 395 kts | 154° |
| 2026-05-08 07:21 | -50.83552 | -73.32624 | 29405 ft | 395 kts | 154° |
| 2026-05-08 07:21 | -50.88255 | -73.28136 | 29408 ft | 395 kts | 154° |
| 2026-05-08 07:22 | -50.92960 | -73.23643 | 29421 ft | 395 kts | 154° |
| 2026-05-08 07:22 | -50.97660 | -73.19139 | 29426 ft | 394 kts | 154° |
| 2026-05-08 07:23 | -51.02394 | -73.14595 | 29428 ft | 394 kts | 154° |
| 2026-05-08 07:23 | -51.07086 | -73.10081 | 29429 ft | 394 kts | 154° |
| 2026-05-08 07:24 | -51.11777 | -73.05564 | 29425 ft | 393 kts | 153° |
| 2026-05-08 07:24 | -51.15732 | -73.01752 | 29429 ft | 394 kts | 153° |
| 2026-05-08 07:25 | -51.20414 | -72.97217 | 29420 ft | 393 kts | 153° |
| 2026-05-08 07:26 | -51.27446 | -72.90369 | 29415 ft | 393 kts | 153° |
| 2026-05-08 07:26 | -51.32133 | -72.85777 | 29417 ft | 392 kts | 153° |
| 2026-05-08 07:27 | -51.36881 | -72.81113 | 29415 ft | 392 kts | 153° |
| 2026-05-08 07:27 | -51.41589 | -72.76478 | 29414 ft | 392 kts | 153° |
| 2026-05-08 07:28 | -51.46336 | -72.71799 | 29413 ft | 392 kts | 153° |
| 2026-05-08 07:28 | -51.51009 | -72.67185 | 29406 ft | 392 kts | 153° |
| 2026-05-08 07:29 | -51.55695 | -72.62552 | 29400 ft | 392 kts | 153° |
| 2026-05-08 07:29 | -51.60336 | -72.57949 | 29407 ft | 392 kts | 152° |
| 2026-05-08 07:30 | -51.64981 | -72.53325 | 29402 ft | 392 kts | 152° |
| 2026-05-08 07:30 | -51.69625 | -72.48686 | 29403 ft | 393 kts | 152° |
| 2026-05-08 07:31 | -51.74108 | -72.44082 | 29404 ft | 395 kts | 147° |
| 2026-05-08 07:31 | -51.78620 | -72.38587 | 29407 ft | 395 kts | 147° |
| 2026-05-08 07:32 | -51.83046 | -72.33217 | 29410 ft | 395 kts | 147° |
| 2026-05-08 07:32 | -51.85248 | -72.30540 | 29295 ft | 392 kts | 147° |
| 2026-05-08 07:32 | -51.87392 | -72.27919 | 29005 ft | 382 kts | 147° |
| 2026-05-08 07:32 | -51.89485 | -72.25351 | 28730 ft | 375 kts | 147° |
| 2026-05-08 07:33 | -51.91576 | -72.22788 | 28463 ft | 371 kts | 147° |
| 2026-05-08 07:33 | -51.93629 | -72.20273 | 28192 ft | 368 kts | 147° |
| 2026-05-08 07:33 | -51.95667 | -72.17774 | 27928 ft | 366 kts | 147° |
| 2026-05-08 07:33 | -51.97696 | -72.15289 | 27665 ft | 364 kts | 147° |
| 2026-05-08 07:34 | -51.99710 | -72.12820 | 27407 ft | 362 kts | 147° |
| 2026-05-08 07:34 | -52.01717 | -72.10357 | 27148 ft | 360 kts | 147° |
| 2026-05-08 07:34 | -52.03734 | -72.07873 | 26891 ft | 358 kts | 147° |
| 2026-05-08 07:34 | -52.05718 | -72.05428 | 26641 ft | 357 kts | 147° |
| 2026-05-08 07:35 | -52.07662 | -72.03029 | 26390 ft | 355 kts | 147° |
| 2026-05-08 07:35 | -52.09600 | -72.00543 | 26136 ft | 354 kts | 144° |
| 2026-05-08 07:35 | -52.11472 | -71.97966 | 25898 ft | 353 kts | 143° |
| 2026-05-08 07:35 | -52.13319 | -71.95328 | 25653 ft | 352 kts | 142° |
| 2026-05-08 07:36 | -52.15167 | -71.92658 | 25411 ft | 350 kts | 142° |
| 2026-05-08 07:36 | -52.16989 | -71.90032 | 25166 ft | 348 kts | 142° |
| 2026-05-08 07:36 | -52.18189 | -71.88310 | 25010 ft | 347 kts | 143° |
| 2026-05-08 07:36 | -52.20001 | -71.85723 | 24770 ft | 344 kts | 143° |
| 2026-05-08 07:37 | -52.21787 | -71.83179 | 24433 ft | 339 kts | 143° |
| 2026-05-08 07:37 | -52.23552 | -71.80675 | 24034 ft | 335 kts | 143° |
| 2026-05-08 07:37 | -52.25305 | -71.78194 | 23567 ft | 331 kts | 143° |
| 2026-05-08 07:37 | -52.27039 | -71.75737 | 23151 ft | 327 kts | 142° |
| 2026-05-08 07:38 | -52.28767 | -71.73284 | 22744 ft | 323 kts | 142° |
| 2026-05-08 07:38 | -52.30450 | -71.70895 | 22338 ft | 319 kts | 142° |
| 2026-05-08 07:38 | -52.32113 | -71.68533 | 21935 ft | 315 kts | 142° |
| 2026-05-08 07:38 | -52.33757 | -71.66190 | 21539 ft | 312 kts | 142° |
| 2026-05-08 07:39 | -52.35388 | -71.63864 | 21142 ft | 310 kts | 141° |
| 2026-05-08 07:39 | -52.37005 | -71.61556 | 20750 ft | 307 kts | 141° |
| 2026-05-08 07:39 | -52.38606 | -71.59267 | 20352 ft | 304 kts | 141° |
| 2026-05-08 07:39 | -52.40192 | -71.56995 | 19967 ft | 302 kts | 141° |
| 2026-05-08 07:40 | -52.41767 | -71.54734 | 19582 ft | 300 kts | 140° |
| 2026-05-08 07:40 | -52.43351 | -71.52457 | 19202 ft | 298 kts | 140° |
| 2026-05-08 07:40 | -52.44910 | -71.50215 | 18816 ft | 297 kts | 140° |
| 2026-05-08 07:40 | -52.46460 | -71.47983 | 18414 ft | 296 kts | 140° |
| 2026-05-08 07:41 | -52.48007 | -71.45752 | 18027 ft | 295 kts | 140° |
| 2026-05-08 07:41 | -52.49550 | -71.43525 | 17652 ft | 296 kts | 140° |
| 2026-05-08 07:41 | -52.51079 | -71.41318 | 17292 ft | 296 kts | 140° |
| 2026-05-08 07:41 | -52.52645 | -71.39057 | 16916 ft | 296 kts | 140° |
| 2026-05-08 07:42 | -52.54195 | -71.36818 | 16562 ft | 297 kts | 140° |
| 2026-05-08 07:42 | -52.55748 | -71.34577 | 16187 ft | 297 kts | 140° |
| 2026-05-08 07:42 | -52.57285 | -71.32355 | 15831 ft | 298 kts | 140° |
| 2026-05-08 07:42 | -52.58862 | -71.30072 | 15462 ft | 298 kts | 140° |
| 2026-05-08 07:43 | -52.60401 | -71.27841 | 15099 ft | 299 kts | 140° |
| 2026-05-08 07:43 | -52.61965 | -71.25570 | 14728 ft | 300 kts | 140° |
| 2026-05-08 07:43 | -52.63529 | -71.23292 | 14362 ft | 300 kts | 140° |
| 2026-05-08 07:43 | -52.65094 | -71.21013 | 13964 ft | 301 kts | 140° |
| 2026-05-08 07:44 | -52.66660 | -71.18734 | 13585 ft | 300 kts | 140° |
| 2026-05-08 07:44 | -52.68199 | -71.16491 | 13212 ft | 298 kts | 140° |
| 2026-05-08 07:44 | -52.69897 | -71.14014 | 12801 ft | 297 kts | 139° |
| 2026-05-08 07:44 | -52.71437 | -71.11761 | 12440 ft | 295 kts | 139° |
| 2026-05-08 07:45 | -52.72969 | -71.09515 | 12061 ft | 294 kts | 139° |
| 2026-05-08 07:45 | -52.74474 | -71.07307 | 11686 ft | 292 kts | 139° |
| 2026-05-08 07:45 | -52.76005 | -71.05056 | 11313 ft | 291 kts | 139° |
| 2026-05-08 07:45 | -52.77518 | -71.02832 | 10941 ft | 290 kts | 139° |
| 2026-05-08 07:46 | -52.79019 | -71.00624 | 10631 ft | 286 kts | 139° |
| 2026-05-08 07:46 | -52.80495 | -70.98450 | 10542 ft | 286 kts | 139° |
| 2026-05-08 07:46 | -52.81996 | -70.96245 | 10077 ft | 289 kts | 139° |
| 2026-05-08 07:46 | -52.83451 | -70.93983 | 9669 ft | 288 kts | 131° |
| 2026-05-08 07:47 | -52.84543 | -70.91249 | 9349 ft | 284 kts | 116° |
| 2026-05-08 07:47 | -52.85226 | -70.88158 | 8815 ft | 283 kts | 107° |
| 2026-05-08 07:47 | -52.85800 | -70.85080 | 8343 ft | 281 kts | 107° |
| 2026-05-08 07:47 | -52.86376 | -70.82013 | 7968 ft | 277 kts | 107° |
| 2026-05-08 07:48 | -52.86949 | -70.78976 | 7453 ft | 274 kts | 107° |
| 2026-05-08 07:48 | -52.87516 | -70.75978 | 6962 ft | 271 kts | 107° |
| 2026-05-08 07:48 | -52.88074 | -70.73020 | 6436 ft | 269 kts | 107° |
| 2026-05-08 07:48 | -52.88625 | -70.70077 | 5927 ft | 266 kts | 107° |
| 2026-05-08 07:49 | -52.89171 | -70.67172 | 5407 ft | 264 kts | 107° |
| 2026-05-08 07:49 | -52.89711 | -70.64287 | 4916 ft | 260 kts | 107° |
| 2026-05-08 07:49 | -52.90246 | -70.61440 | 4481 ft | 259 kts | 109° |
| 2026-05-08 07:49 | -52.91092 | -70.58829 | 4113 ft | 257 kts | 129° |
| 2026-05-08 07:50 | -52.92464 | -70.56949 | 3788 ft | 255 kts | 152° |
| 2026-05-08 07:50 | -52.94112 | -70.56085 | 3669 ft | 245 kts | 173° |
| 2026-05-08 07:50 | -52.95777 | -70.55976 | 3543 ft | 235 kts | 178° |
| 2026-05-08 07:50 | -52.97388 | -70.55827 | 3317 ft | 228 kts | 167° |
| 2026-05-08 07:51 | -52.98734 | -70.54665 | 3182 ft | 214 kts | 135° |
| 2026-05-08 07:51 | -52.99496 | -70.52545 | 3066 ft | 209 kts | 104° |
| 2026-05-08 07:51 | -52.99510 | -70.50197 | 2999 ft | 207 kts | 81° |
| 2026-05-08 07:51 | -52.99350 | -70.47791 | 2999 ft | 207 kts | 88° |
| 2026-05-08 07:52 | -52.99318 | -70.45436 | 3005 ft | 207 kts | 90° |
| 2026-05-08 07:52 | -52.99311 | -70.43041 | 3004 ft | 207 kts | 90° |
| 2026-05-08 07:52 | -52.99126 | -70.40680 | 3005 ft | 208 kts | 71° |
| 2026-05-08 07:52 | -52.98347 | -70.38641 | 3000 ft | 209 kts | 43° |
| 2026-05-08 07:53 | -52.97083 | -70.37470 | 3000 ft | 211 kts | 15° |
| 2026-05-08 07:53 | -52.95617 | -70.37423 | 2995 ft | 214 kts | 347° |
| 2026-05-08 07:53 | -52.94294 | -70.38524 | 2999 ft | 215 kts | 319° |
| 2026-05-08 07:53 | -52.93429 | -70.40522 | 2995 ft | 216 kts | 290° |
| 2026-05-08 07:54 | -52.93223 | -70.42955 | 2997 ft | 215 kts | 262° |
| 2026-05-08 07:54 | -52.93717 | -70.45255 | 3003 ft | 213 kts | 234° |
| 2026-05-08 07:54 | -52.94778 | -70.46919 | 3005 ft | 211 kts | 207° |
| 2026-05-08 07:54 | -52.96135 | -70.47833 | 3003 ft | 210 kts | 198° |
| 2026-05-08 07:55 | -52.97519 | -70.48616 | 3004 ft | 211 kts | 200° |
| 2026-05-08 07:55 | -52.98750 | -70.49922 | 3000 ft | 212 kts | 225° |
| 2026-05-08 07:55 | -52.99501 | -70.52017 | 3009 ft | 214 kts | 253° |
| 2026-05-08 07:55 | -52.99676 | -70.54472 | 3012 ft | 215 kts | 266° |
| 2026-05-08 07:56 | -52.99627 | -70.56940 | 3000 ft | 215 kts | 285° |
| 2026-05-08 07:56 | -52.99218 | -70.58436 | 3003 ft | 215 kts | 306° |
| 2026-05-08 07:56 | -52.98057 | -70.59993 | 3007 ft | 214 kts | 339° |
| 2026-05-08 07:56 | -52.96609 | -70.60276 | 3007 ft | 211 kts | 12° |
| 2026-05-08 07:57 | -52.95300 | -70.59253 | 3009 ft | 209 kts | 43° |
| 2026-05-08 07:57 | -52.94515 | -70.57272 | 3005 ft | 207 kts | 74° |
| 2026-05-08 07:57 | -52.94354 | -70.54912 | 3014 ft | 207 kts | 88° |
| 2026-05-08 07:57 | -52.94305 | -70.52490 | 3005 ft | 207 kts | 89° |
| 2026-05-08 07:58 | -52.94262 | -70.50111 | 3005 ft | 207 kts | 89° |
| 2026-05-08 07:58 | -52.94218 | -70.47716 | 3004 ft | 207 kts | 89° |
| 2026-05-08 07:58 | -52.94243 | -70.45341 | 2996 ft | 206 kts | 101° |
| 2026-05-08 07:58 | -52.94838 | -70.43205 | 3000 ft | 206 kts | 130° |
| 2026-05-08 07:59 | -52.96027 | -70.41864 | 2999 ft | 207 kts | 162° |
| 2026-05-08 07:59 | -52.97457 | -70.41766 | 3003 ft | 209 kts | 193° |
| 2026-05-08 07:59 | -52.98734 | -70.42961 | 3004 ft | 212 kts | 226° |
| 2026-05-08 07:59 | -52.99431 | -70.45101 | 2990 ft | 214 kts | 258° |
| 2026-05-08 08:00 | -52.99528 | -70.47532 | 3007 ft | 212 kts | 268° |
| 2026-05-08 08:00 | -52.99568 | -70.49867 | 3004 ft | 192 kts | 268° |
| 2026-05-08 08:00 | -52.99601 | -70.51975 | 2982 ft | 176 kts | 268° |
| 2026-05-08 08:00 | -52.99633 | -70.53999 | 2987 ft | 170 kts | 268° |
| 2026-05-08 08:01 | -52.99663 | -70.55928 | 2991 ft | 168 kts | 268° |
| 2026-05-08 08:01 | -52.99693 | -70.57871 | 2995 ft | 168 kts | 268° |
| 2026-05-08 08:01 | -52.99723 | -70.59810 | 2946 ft | 168 kts | 268° |
| 2026-05-08 08:01 | -52.99753 | -70.61797 | 2773 ft | 168 kts | 268° |
| 2026-05-08 08:02 | -52.99783 | -70.63773 | 2550 ft | 167 kts | 268° |
| 2026-05-08 08:02 | -52.99812 | -70.65724 | 2318 ft | 166 kts | 268° |
| 2026-05-08 08:02 | -52.99841 | -70.67636 | 2091 ft | 165 kts | 268° |
| 2026-05-08 08:02 | -52.99868 | -70.69548 | 1887 ft | 158 kts | 268° |
| 2026-05-08 08:03 | -52.99894 | -70.71340 | 1637 ft | 153 kts | 268° |
| 2026-05-08 08:03 | -52.99919 | -70.73097 | 1424 ft | 151 kts | 268° |
| 2026-05-08 08:03 | -52.99944 | -70.74808 | 1209 ft | 150 kts | 268° |
| 2026-05-08 08:03 | -52.99968 | -70.76529 | 990 ft | 148 kts | 268° |
| 2026-05-08 08:04 | -52.99991 | -70.78235 | 779 ft | 147 kts | 268° |
| 2026-05-08 08:04 | -53.00014 | -70.79925 | 580 ft | 146 kts | 268° |
| 2026-05-08 08:04 | -53.00037 | -70.81598 | 377 ft | 144 kts | 267° |
| 2026-05-08 08:04 | -53.00060 | -70.83259 | 199 ft | 143 kts | 267° |
| 2026-05-08 08:05 | -53.00084 | -70.84827 | 167 ft | 119 kts | 269° |
| 2026-05-08 08:05 | -53.00097 | -70.85892 | 165 ft | 67 kts | 269° |
| 2026-05-08 08:05 | -53.00100 | -70.86235 | 167 ft | 10 kts | 269° |
| 2026-05-08 08:05 | -53.00104 | -70.86291 | 168 ft | 4 kts | 246° |
| 2026-05-08 08:06 | -53.00125 | -70.86315 | 167 ft | 6 kts | 194° |
| 2026-05-08 08:06 | -53.00174 | -70.86263 | 166 ft | 9 kts | 139° |
| 2026-05-08 08:06 | -53.00223 | -70.86193 | 166 ft | 9 kts | 139° |
| 2026-05-08 08:06 | -53.00264 | -70.86120 | 166 ft | 9 kts | 118° |
| 2026-05-08 08:07 | -53.00268 | -70.85966 | 167 ft | 17 kts | 88° |
| 2026-05-08 08:07 | -53.00266 | -70.85768 | 167 ft | 17 kts | 89° |
| 2026-05-08 08:07 | -53.00264 | -70.85577 | 167 ft | 16 kts | 89° |
| 2026-05-08 08:07 | -53.00262 | -70.85395 | 165 ft | 15 kts | 88° |
| 2026-05-08 08:08 | -53.00259 | -70.85222 | 164 ft | 15 kts | 88° |
| 2026-05-08 08:08 | -53.00256 | -70.85063 | 165 ft | 12 kts | 88° |
| 2026-05-08 08:08 | -53.00254 | -70.84920 | 165 ft | 15 kts | 89° |
| 2026-05-08 08:08 | -53.00279 | -70.84740 | 164 ft | 15 kts | 133° |
| 2026-05-08 08:09 | -53.00357 | -70.84648 | 164 ft | 12 kts | 146° |
| 2026-05-08 08:09 | -53.00383 | -70.84542 | 164 ft | 10 kts | 90° |
| 2026-05-08 08:09 | -53.00381 | -70.84413 | 164 ft | 9 kts | 89° |
| 2026-05-08 08:09 | -53.00406 | -70.84367 | 164 ft | 4 kts | 169° |
| 2026-05-08 08:10 | -53.00434 | -70.84364 | 164 ft | 5 kts | 179° |
| 2026-05-08 08:10 | -53.00444 | -70.84364 | 164 ft | 0 kts | 179° |